Time;durP1;ratioP1;P1;durP2;ratioP2;P2;SDS_P1;SDS_P2;PMS_P1;PMS_P2;Temp;Humidity;BMP_temperature;BMP_pressure;BME280_temperature;BME280_humidity;BME280_pressure;Samples;Min_cycle;Max_cycle;Signal;HPM_P1;HPM_P2
2023/09/11 06:00:46;;;;;;;30.93;15.37;;;;;;;;;;5733161;23;20502;-73
2023/09/11 06:03:12;;;;;;;31.43;15.67;;;;;;;;;;4904113;29;20788;-73
2023/09/11 06:05:40;;;;;;;32.90;15.93;;;;;;;;;;4917014;29;20429;-74
2023/09/11 06:08:06;;;;;;;32.97;16.37;;;;;;;;;;4917357;29;20717;-74
2023/09/11 06:10:33;;;;;;;36.73;18.33;;;;;;;;;;4916992;29;20537;-74
2023/09/11 06:12:59;;;;;;;34.80;15.97;;;;;;;;;;4917051;29;20410;-74
2023/09/11 06:15:25;;;;;;;27.50;14.87;;;;;;;;;;4917528;29;20782;-74
2023/09/11 06:17:51;;;;;;;30.50;16.30;;;;;;;;;;4916910;29;21001;-74
2023/09/11 06:20:18;;;;;;;27.43;14.57;;;;;;;;;;4916723;29;20589;-74
2023/09/11 06:22:44;;;;;;;32.63;15.80;;;;;;;;;;4916652;29;20804;-74
2023/09/11 06:25:10;;;;;;;40.73;15.87;;;;;;;;;;4914940;29;20478;-74
2023/09/11 06:27:36;;;;;;;40.03;15.63;;;;;;;;;;4893450;29;20431;-75
2023/09/11 06:30:06;;;;;;;35.70;17.10;;;;;;;;;;4897503;29;20858;-74
2023/09/11 06:32:32;;;;;;;32.63;16.50;;;;;;;;;;4904056;29;20502;-74
2023/09/11 06:34:59;;;;;;;37.90;15.70;;;;;;;;;;4916006;29;20438;-73
2023/09/11 06:37:25;;;;;;;20.97;14.97;;;;;;;;;;4914020;29;20521;-74
2023/09/11 06:39:51;;;;;;;26.00;16.33;;;;;;;;;;4916620;29;20470;-74
2023/09/11 06:42:20;;;;;;;23.47;15.03;;;;;;;;;;4916128;29;20435;-73
2023/09/11 06:44:46;;;;;;;26.37;17.00;;;;;;;;;;4919566;29;20414;-74
2023/09/11 06:47:12;;;;;;;24.70;14.60;;;;;;;;;;4897499;29;20475;-74
2023/09/11 06:49:38;;;;;;;31.27;15.80;;;;;;;;;;4902623;29;20869;-74
2023/09/11 06:52:04;;;;;;;23.93;14.33;;;;;;;;;;4916035;29;20438;-74
2023/09/11 06:54:30;;;;;;;26.30;15.23;;;;;;;;;;4916403;29;20442;-74
2023/09/11 06:56:56;;;;;;;27.27;13.93;;;;;;;;;;4914928;29;20465;-75
2023/09/11 06:59:22;;;;;;;24.97;15.33;;;;;;;;;;4916238;29;20607;-74
2023/09/11 07:01:48;;;;;;;24.70;15.10;;;;;;;;;;4914628;29;20465;-74
2023/09/11 07:04:14;;;;;;;20.60;15.17;;;;;;;;;;4916406;29;20771;-75
2023/09/11 07:06:41;;;;;;;21.10;15.10;;;;;;;;;;4915816;29;20800;-73
2023/09/11 07:09:07;;;;;;;23.80;14.93;;;;;;;;;;4916153;29;20430;-74
2023/09/11 07:11:33;;;;;;;27.00;14.40;;;;;;;;;;4915736;29;20441;-73
2023/09/11 07:14:00;;;;;;;27.73;15.53;;;;;;;;;;4916072;29;20438;-74
2023/09/11 07:16:26;;;;;;;21.80;12.80;;;;;;;;;;4914496;29;20434;-74
2023/09/11 07:18:52;;;;;;;28.53;14.07;;;;;;;;;;4896501;29;20445;-74
2023/09/11 07:21:18;;;;;;;21.53;13.93;;;;;;;;;;4896769;29;20431;-73
2023/09/11 07:23:44;;;;;;;20.30;13.80;;;;;;;;;;4896822;29;20443;-74
2023/09/11 07:26:10;;;;;;;21.20;15.20;;;;;;;;;;4896883;29;20649;-74
2023/09/11 07:28:54;;;;;;;31.50;13.90;;;;;;;;;;4893876;29;20833;-73
2023/09/11 07:31:21;;;;;;;22.10;13.07;;;;;;;;;;4890973;29;20448;-73
2023/09/11 07:33:46;;;;;;;34.17;15.03;;;;;;;;;;4895385;29;20431;-67
2023/09/11 07:36:13;;;;;;;27.87;13.70;;;;;;;;;;4896392;29;20844;-68
2023/09/11 07:38:44;;;;;;;36.13;15.20;;;;;;;;;;4894491;29;20416;-67
2023/09/11 07:41:10;;;;;;;19.27;11.80;;;;;;;;;;4894897;29;20447;-67
2023/09/11 07:43:36;;;;;;;21.20;13.43;;;;;;;;;;4895671;29;20431;-67
2023/09/11 07:46:02;;;;;;;17.63;11.97;;;;;;;;;;4895786;29;20427;-67
2023/09/11 07:48:28;;;;;;;17.90;12.50;;;;;;;;;;4896090;29;20435;-67
2023/09/11 07:50:57;;;;;;;23.80;13.70;;;;;;;;;;4896457;29;20450;-68
2023/09/11 07:53:23;;;;;;;21.77;12.40;;;;;;;;;;4893850;29;20482;-66
2023/09/11 07:55:49;;;;;;;25.53;14.17;;;;;;;;;;4893233;29;20907;-68
2023/09/11 07:58:17;;;;;;;17.50;12.90;;;;;;;;;;4895574;29;20796;-67
2023/09/11 08:00:43;;;;;;;24.90;12.90;;;;;;;;;;4913821;29;20482;-67
2023/09/11 08:03:09;;;;;;;22.77;12.20;;;;;;;;;;4907367;29;20431;-68
2023/09/11 08:05:35;;;;;;;21.13;12.33;;;;;;;;;;4913736;29;20760;-68
2023/09/11 08:08:02;;;;;;;19.53;11.83;;;;;;;;;;4899307;29;20419;-68
2023/09/11 08:10:28;;;;;;;24.57;13.33;;;;;;;;;;4902182;29;20753;-68
2023/09/11 08:12:54;;;;;;;17.60;11.30;;;;;;;;;;4901975;29;20454;-67
2023/09/11 08:15:20;;;;;;;29.13;14.13;;;;;;;;;;4902075;29;20461;-68
2023/09/11 08:17:46;;;;;;;22.90;12.67;;;;;;;;;;4911045;29;20887;-68
2023/09/11 08:20:13;;;;;;;18.80;11.73;;;;;;;;;;4921672;29;20508;-68
2023/09/11 08:22:41;;;;;;;21.60;10.97;;;;;;;;;;4908890;29;20423;-69
2023/09/11 08:25:07;;;;;;;17.83;12.27;;;;;;;;;;4919356;29;20501;-67
2023/09/11 08:27:33;;;;;;;22.60;12.90;;;;;;;;;;4909498;29;20483;-67
2023/09/11 08:29:59;;;;;;;22.20;13.00;;;;;;;;;;4902612;29;20417;-68
2023/09/11 08:32:25;;;;;;;16.83;12.07;;;;;;;;;;4901746;29;20447;-68
2023/09/11 08:34:51;;;;;;;20.40;10.37;;;;;;;;;;4902106;29;20510;-69
2023/09/11 08:37:17;;;;;;;18.83;11.43;;;;;;;;;;4905382;29;20438;-68
2023/09/11 08:39:43;;;;;;;28.67;11.70;;;;;;;;;;4920673;29;20517;-69
2023/09/11 08:42:10;;;;;;;18.17;10.60;;;;;;;;;;4912723;29;20946;-68
2023/09/11 08:44:35;;;;;;;21.33;11.97;;;;;;;;;;4902761;29;20450;-68
2023/09/11 08:47:03;;;;;;;15.30;10.00;;;;;;;;;;4902130;29;20411;-69
2023/09/11 08:49:38;;;;;;;15.60;9.67;;;;;;;;;;4902127;29;20909;-68
2023/09/11 08:52:04;;;;;;;16.03;9.80;;;;;;;;;;4902419;29;20431;-69
2023/09/11 08:54:35;;;;;;;21.67;10.20;;;;;;;;;;4902272;29;20419;-69
2023/09/11 08:57:02;;;;;;;23.20;12.20;;;;;;;;;;4907731;29;20437;-69
2023/09/11 08:59:29;;;;;;;14.97;10.73;;;;;;;;;;4920884;29;20576;-70
2023/09/11 09:01:55;;;;;;;13.33;10.57;;;;;;;;;;4915201;29;20454;-70
2023/09/11 09:04:23;;;;;;;14.50;10.20;;;;;;;;;;4902251;29;20877;-70
2023/09/11 09:06:49;;;;;;;16.57;11.27;;;;;;;;;;4905812;29;20478;-68
2023/09/11 09:09:15;;;;;;;16.93;10.37;;;;;;;;;;4902027;29;20427;-68
2023/09/11 09:11:48;;;;;;;15.27;10.30;;;;;;;;;;4902094;29;20443;-67
2023/09/11 09:14:15;;;;;;;15.70;10.50;;;;;;;;;;4902957;29;20414;-67
2023/09/11 09:16:41;;;;;;;16.00;10.03;;;;;;;;;;4904417;29;20517;-68
2023/09/11 09:19:07;;;;;;;14.30;11.67;;;;;;;;;;4911713;29;20558;-68
2023/09/11 09:21:33;;;;;;;13.50;10.50;;;;;;;;;;4900611;29;20777;-67
2023/09/11 09:24:11;;;;;;;23.20;11.47;;;;;;;;;;4898597;29;20847;-67
2023/09/11 09:26:56;;;;;;;24.47;12.23;;;;;;;;;;4898852;29;20412;-67
2023/09/11 09:29:22;;;;;;;18.50;12.07;;;;;;;;;;4910914;29;20494;-67
2023/09/11 09:31:48;;;;;;;15.33;10.70;;;;;;;;;;4900714;29;20444;-67
2023/09/11 09:34:14;;;;;;;19.23;10.50;;;;;;;;;;4899407;29;20415;-65
2023/09/11 09:36:53;;;;;;;21.67;12.03;;;;;;;;;;4898999;29;20423;-68
2023/09/11 09:39:19;;;;;;;18.47;10.70;;;;;;;;;;4898888;29;20852;-68
2023/09/11 09:41:54;;;;;;;20.70;10.80;;;;;;;;;;4899735;29;20435;-68
2023/09/11 09:44:30;;;;;;;13.63;10.37;;;;;;;;;;4910814;29;20426;-68
2023/09/11 09:46:56;;;;;;;16.07;10.63;;;;;;;;;;4914863;29;20852;-68
2023/09/11 09:49:22;;;;;;;24.50;10.97;;;;;;;;;;4898727;29;20419;-68
2023/09/11 09:51:48;;;;;;;17.47;10.60;;;;;;;;;;4911723;29;20465;-68
2023/09/11 09:54:14;;;;;;;17.43;10.20;;;;;;;;;;4896471;29;20427;-68
2023/09/11 09:56:40;;;;;;;17.37;11.23;;;;;;;;;;4898126;29;20446;-68
2023/09/11 09:59:07;;;;;;;19.17;10.80;;;;;;;;;;4908580;29;20844;-70
2023/09/11 10:01:44;;;;;;;21.13;11.37;;;;;;;;;;4915693;29;20458;-68
2023/09/11 10:04:16;;;;;;;17.50;10.40;;;;;;;;;;4898361;29;20910;-68
2023/09/11 10:06:42;;;;;;;19.80;11.30;;;;;;;;;;4897042;29;20415;-68
2023/09/11 10:09:10;;;;;;;18.73;10.53;;;;;;;;;;4879475;29;20443;-67
2023/09/11 10:11:37;;;;;;;19.60;10.37;;;;;;;;;;4879435;29;20440;-64
2023/09/11 10:14:03;;;;;;;16.20;10.13;;;;;;;;;;4904656;29;20934;-65
2023/09/11 10:16:33;;;;;;;18.37;12.23;;;;;;;;;;4917186;29;20410;-65
2023/09/11 10:19:00;;;;;;;13.43;9.50;;;;;;;;;;4900504;29;20519;-65
2023/09/11 10:21:26;;;;;;;13.00;9.40;;;;;;;;;;4898680;29;20438;-65
2023/09/11 10:23:52;;;;;;;18.40;10.70;;;;;;;;;;4896850;29;20443;-65
2023/09/11 10:26:23;;;;;;;12.00;8.73;;;;;;;;;;4897413;29;20502;-65
2023/09/11 10:28:51;;;;;;;13.73;9.10;;;;;;;;;;4897741;29;20419;-65
2023/09/11 10:31:20;;;;;;;16.60;9.27;;;;;;;;;;4897353;29;20447;-65
2023/09/11 10:33:48;;;;;;;11.13;8.57;;;;;;;;;;4898046;29;20423;-65
2023/09/11 10:36:15;;;;;;;15.53;8.50;;;;;;;;;;4897915;29;20919;-66
2023/09/11 10:38:42;;;;;;;12.90;7.40;;;;;;;;;;4899101;29;20424;-65
2023/09/11 10:41:08;;;;;;;16.63;8.40;;;;;;;;;;4897839;29;20530;-64
2023/09/11 10:43:34;;;;;;;17.97;8.70;;;;;;;;;;4897411;29;20839;-65
2023/09/11 10:46:14;;;;;;;14.10;7.77;;;;;;;;;;4897602;29;20494;-65
2023/09/11 10:48:40;;;;;;;13.63;9.30;;;;;;;;;;4897603;29;20508;-65
2023/09/11 10:51:06;;;;;;;16.40;9.07;;;;;;;;;;4897380;29;20583;-65
2023/09/11 10:53:32;;;;;;;17.13;10.03;;;;;;;;;;4898032;29;20427;-65
2023/09/11 10:56:02;;;;;;;12.87;8.17;;;;;;;;;;4897424;29;20424;-66
2023/09/11 10:58:28;;;;;;;20.97;8.70;;;;;;;;;;4900554;29;20439;-66
2023/09/11 11:00:55;;;;;;;14.23;8.80;;;;;;;;;;4896603;29;20474;-66
2023/09/11 11:03:21;;;;;;;17.90;9.67;;;;;;;;;;4895187;29;20940;-66
2023/09/11 11:05:47;;;;;;;14.70;9.60;;;;;;;;;;4897751;29;20423;-65
2023/09/11 11:08:15;;;;;;;17.87;8.80;;;;;;;;;;4906879;29;20800;-65
2023/09/11 11:10:41;;;;;;;20.90;9.27;;;;;;;;;;4916459;29;20509;-66
2023/09/11 11:13:08;;;;;;;13.07;8.80;;;;;;;;;;4916065;29;20411;-65
2023/09/11 11:15:35;;;;;;;14.67;9.13;;;;;;;;;;4916038;29;20439;-64
2023/09/11 11:18:11;;;;;;;17.33;9.23;;;;;;;;;;4902413;29;20451;-64
2023/09/11 11:20:38;;;;;;;14.83;9.80;;;;;;;;;;4893317;29;20986;-64
2023/09/11 11:23:08;;;;;;;14.17;9.13;;;;;;;;;;4891685;29;20450;-64
2023/09/11 11:25:34;;;;;;;20.37;10.20;;;;;;;;;;4895371;29;20447;-64
2023/09/11 11:28:07;;;;;;;15.13;10.33;;;;;;;;;;4897430;29;20443;-65
2023/09/11 11:30:35;;;;;;;13.23;8.87;;;;;;;;;;4889224;29;20471;-64
2023/09/11 11:33:04;;;;;;;20.43;10.57;;;;;;;;;;4897041;29;20455;-64
2023/09/11 11:35:31;;;;;;;16.23;9.03;;;;;;;;;;4897773;29;20436;-65
2023/09/11 11:37:57;;;;;;;13.80;9.10;;;;;;;;;;4896418;29;20486;-65
2023/09/11 11:40:23;;;;;;;18.37;8.83;;;;;;;;;;4893576;29;20502;-65
2023/09/11 11:42:49;;;;;;;13.47;9.03;;;;;;;;;;4896353;29;20439;-65
2023/09/11 11:45:15;;;;;;;21.50;9.87;;;;;;;;;;4896179;29;20454;-65
2023/09/11 11:47:41;;;;;;;15.63;9.00;;;;;;;;;;4897264;29;20498;-65
2023/09/11 11:50:11;;;;;;;14.53;9.20;;;;;;;;;;4896783;29;20420;-66
2023/09/11 11:52:37;;;;;;;19.37;8.80;;;;;;;;;;4895445;29;20771;-65
2023/09/11 11:55:17;;;;;;;11.73;8.57;;;;;;;;;;4895901;29;20432;-65
2023/09/11 11:57:43;;;;;;;15.70;8.90;;;;;;;;;;4894486;29;20444;-65
2023/09/11 12:00:10;;;;;;;17.80;9.77;;;;;;;;;;4895029;29;20493;-64
2023/09/11 12:02:36;;;;;;;16.57;8.57;;;;;;;;;;4896232;29;20198;-64
2023/09/11 12:05:11;;;;;;;16.83;9.57;;;;;;;;;;4893138;29;20423;-64
2023/09/11 12:07:37;;;;;;;20.63;8.53;;;;;;;;;;4896089;29;20423;-65
2023/09/11 12:10:03;;;;;;;12.67;9.07;;;;;;;;;;4896117;29;20427;-65
2023/09/11 12:12:29;;;;;;;17.17;10.07;;;;;;;;;;4895783;29;20447;-64
2023/09/11 12:14:59;;;;;;;12.87;7.87;;;;;;;;;;4918804;23;20550;-68
2023/09/11 12:17:24;;;;;;;20.40;9.47;;;;;;;;;;4901609;29;20954;-67
2023/09/11 12:19:50;;;;;;;19.60;9.60;;;;;;;;;;4902178;29;20467;-69
2023/09/11 12:22:16;;;;;;;18.53;9.20;;;;;;;;;;4894886;29;20985;-69
2023/09/11 12:24:42;;;;;;;11.13;7.97;;;;;;;;;;4895953;29;20423;-70
2023/09/11 12:27:08;;;;;;;17.13;8.50;;;;;;;;;;4895025;29;20430;-70
2023/09/11 12:29:34;;;;;;;13.00;8.90;;;;;;;;;;4908929;29;20933;-70
2023/09/11 12:32:00;;;;;;;15.73;8.77;;;;;;;;;;4914649;29;20454;-66
2023/09/11 12:34:41;;;;;;;14.73;9.50;;;;;;;;;;4913345;29;20972;-67
2023/09/11 12:37:07;;;;;;;26.33;8.87;;;;;;;;;;4903731;29;20431;-70
2023/09/11 12:39:33;;;;;;;13.70;8.43;;;;;;;;;;4910809;29;20996;-67
2023/09/11 12:41:59;;;;;;;15.37;8.83;;;;;;;;;;4914857;29;20775;-68
2023/09/11 12:44:25;;;;;;;13.87;8.43;;;;;;;;;;4914962;29;20494;-70
2023/09/11 12:46:51;;;;;;;22.23;9.17;;;;;;;;;;4914710;29;20502;-68
2023/09/11 12:49:17;;;;;;;18.93;9.00;;;;;;;;;;4913643;29;20513;-68
2023/09/11 12:51:43;;;;;;;11.13;8.00;;;;;;;;;;4914487;29;20466;-68
2023/09/11 12:54:09;;;;;;;14.10;7.70;;;;;;;;;;4908127;29;20443;-67
2023/09/11 12:56:36;;;;;;;12.43;8.10;;;;;;;;;;4918238;29;20449;-67
2023/09/11 12:59:02;;;;;;;13.20;8.37;;;;;;;;;;4918174;29;20429;-66
2023/09/11 13:01:32;;;;;;;11.37;7.40;;;;;;;;;;4901512;29;20427;-66
2023/09/11 13:03:58;;;;;;;17.10;8.23;;;;;;;;;;4899530;29;20415;-66
2023/09/11 13:06:24;;;;;;;18.17;8.00;;;;;;;;;;4899173;29;20512;-71
2023/09/11 13:08:50;;;;;;;19.00;8.60;;;;;;;;;;4917970;29;20429;-69
2023/09/11 13:11:16;;;;;;;19.70;8.90;;;;;;;;;;4918738;29;20426;-66
2023/09/11 13:13:41;;;;;;;21.83;9.03;;;;;;;;;;4917841;29;20644;-68
2023/09/11 13:16:08;;;;;;;10.97;7.60;;;;;;;;;;4917514;29;20521;-67
2023/09/11 13:18:34;;;;;;;12.37;8.50;;;;;;;;;;4918193;29;20913;-66
2023/09/11 13:21:00;;;;;;;11.70;7.67;;;;;;;;;;4916300;29;20470;-67
2023/09/11 13:23:26;;;;;;;18.13;8.60;;;;;;;;;;4917435;29;20782;-67
2023/09/11 13:25:52;;;;;;;12.37;8.83;;;;;;;;;;4917934;29;21052;-68
2023/09/11 13:28:18;;;;;;;23.37;9.17;;;;;;;;;;4917856;29;20778;-67
2023/09/11 13:30:44;;;;;;;24.53;9.43;;;;;;;;;;4917981;29;20414;-67
2023/09/11 13:33:10;;;;;;;22.17;8.67;;;;;;;;;;4916335;29;20433;-67
2023/09/11 13:35:36;;;;;;;15.17;8.67;;;;;;;;;;4917655;29;20934;-68
2023/09/11 13:38:02;;;;;;;14.33;8.27;;;;;;;;;;4912756;29;20792;-68
2023/09/11 13:40:28;;;;;;;14.87;8.30;;;;;;;;;;4900176;29;20530;-68
2023/09/11 13:42:54;;;;;;;17.27;8.60;;;;;;;;;;4906297;29;20426;-68
2023/09/11 13:45:20;;;;;;;19.00;8.00;;;;;;;;;;4910000;29;20458;-67
2023/09/11 13:47:46;;;;;;;12.40;7.83;;;;;;;;;;4897385;29;20439;-68
2023/09/11 13:50:12;;;;;;;14.00;7.70;;;;;;;;;;4897004;29;20415;-69
2023/09/11 13:52:38;;;;;;;22.53;7.33;;;;;;;;;;4896059;29;20768;-68
2023/09/11 13:55:05;;;;;;;13.67;8.23;;;;;;;;;;4898022;29;20458;-66
2023/09/11 13:57:30;;;;;;;27.97;8.13;;;;;;;;;;4896308;29;20451;-67
2023/09/11 13:59:56;;;;;;;12.97;7.90;;;;;;;;;;4896671;29;20477;-68
2023/09/11 14:02:22;;;;;;;13.30;7.97;;;;;;;;;;4897660;29;20419;-68
2023/09/11 14:04:48;;;;;;;13.73;7.57;;;;;;;;;;4895858;29;20546;-69
2023/09/11 14:07:15;;;;;;;14.93;8.43;;;;;;;;;;4889877;29;20438;-69
2023/09/11 14:09:41;;;;;;;18.23;9.07;;;;;;;;;;4898120;29;20482;-68
2023/09/11 14:12:07;;;;;;;16.47;8.10;;;;;;;;;;4897883;29;20510;-67
2023/09/11 14:14:35;;;;;;;17.83;8.37;;;;;;;;;;4897799;29;20422;-68
2023/09/11 14:17:01;;;;;;;18.03;9.00;;;;;;;;;;4895046;29;20534;-68
2023/09/11 14:19:27;;;;;;;12.13;8.10;;;;;;;;;;4898001;29;20481;-68
2023/09/11 14:21:53;;;;;;;13.40;8.63;;;;;;;;;;4897608;29;20427;-68
2023/09/11 14:24:19;;;;;;;23.03;8.53;;;;;;;;;;4897989;29;20415;-68
2023/09/11 14:26:45;;;;;;;10.57;7.53;;;;;;;;;;4897138;29;20458;-67
2023/09/11 14:29:11;;;;;;;19.37;8.73;;;;;;;;;;4895614;29;20427;-68
2023/09/11 14:31:37;;;;;;;19.40;8.30;;;;;;;;;;4896309;29;20496;-68
2023/09/11 14:34:03;;;;;;;14.90;8.87;;;;;;;;;;4897616;29;20911;-68
2023/09/11 14:36:29;;;;;;;14.53;7.93;;;;;;;;;;4893846;29;20965;-68
2023/09/11 14:38:57;;;;;;;16.77;8.50;;;;;;;;;;4896415;29;20795;-67
2023/09/11 14:41:23;;;;;;;17.10;8.17;;;;;;;;;;4897501;29;20418;-68
2023/09/11 14:43:49;;;;;;;14.27;8.23;;;;;;;;;;4897731;29;20789;-67
2023/09/11 14:46:15;;;;;;;22.77;8.60;;;;;;;;;;4897692;29;20811;-68
2023/09/11 14:48:41;;;;;;;14.37;7.07;;;;;;;;;;4889519;29;20435;-67
2023/09/11 14:51:07;;;;;;;20.30;8.70;;;;;;;;;;4897515;29;20419;-67
2023/09/11 14:53:41;;;;;;;13.13;7.50;;;;;;;;;;4889732;29;20507;-67
2023/09/11 14:56:07;;;;;;;19.57;8.67;;;;;;;;;;4878831;29;20676;-66
2023/09/11 14:58:33;;;;;;;13.30;7.50;;;;;;;;;;4886025;29;20420;-67
2023/09/11 15:00:59;;;;;;;13.73;7.70;;;;;;;;;;4897612;29;20475;-67
2023/09/11 15:03:25;;;;;;;16.43;8.53;;;;;;;;;;4897291;29;20514;-66
2023/09/11 15:05:51;;;;;;;19.70;7.50;;;;;;;;;;4892024;29;20456;-67
2023/09/11 15:08:17;;;;;;;17.00;8.27;;;;;;;;;;4897183;29;20930;-67
2023/09/11 15:10:44;;;;;;;15.37;8.30;;;;;;;;;;4897600;29;20833;-67
2023/09/11 15:13:10;;;;;;;13.40;7.50;;;;;;;;;;4896862;29;20483;-69
2023/09/11 15:15:36;;;;;;;19.70;8.83;;;;;;;;;;4896587;29;20485;-68
2023/09/11 15:18:02;;;;;;;23.87;7.90;;;;;;;;;;4897715;29;20526;-67
2023/09/11 15:20:28;;;;;;;18.00;8.70;;;;;;;;;;4903931;29;20481;-67
2023/09/11 15:22:54;;;;;;;16.03;8.10;;;;;;;;;;4902694;29;20424;-67
2023/09/11 15:25:20;;;;;;;14.37;7.90;;;;;;;;;;4899679;29;20781;-67
2023/09/11 15:27:46;;;;;;;25.13;8.70;;;;;;;;;;4899667;29;20427;-66
2023/09/11 15:30:12;;;;;;;14.00;7.60;;;;;;;;;;4898612;29;20455;-67
2023/09/11 15:32:38;;;;;;;14.20;8.20;;;;;;;;;;4898959;29;20443;-68
2023/09/11 15:35:05;;;;;;;20.90;8.80;;;;;;;;;;4898044;29;20550;-67
2023/09/11 15:37:32;;;;;;;17.73;9.23;;;;;;;;;;4901473;29;20518;-68
2023/09/11 15:39:58;;;;;;;19.23;9.10;;;;;;;;;;4901334;29;21509;-67
2023/09/11 15:42:24;;;;;;;16.90;8.77;;;;;;;;;;4898627;29;20499;-67
2023/09/11 15:44:51;;;;;;;24.77;9.50;;;;;;;;;;4898059;29;20468;-69
2023/09/11 15:47:17;;;;;;;16.20;8.03;;;;;;;;;;4898341;29;20426;-67
2023/09/11 15:49:43;;;;;;;19.23;8.37;;;;;;;;;;4896849;29;20510;-67
2023/09/11 15:52:09;;;;;;;13.57;7.53;;;;;;;;;;4894646;29;20443;-68
2023/09/11 15:54:35;;;;;;;20.00;8.10;;;;;;;;;;4893026;29;20861;-68
2023/09/11 15:57:01;;;;;;;18.83;8.30;;;;;;;;;;4891351;29;20435;-67
2023/09/11 15:59:27;;;;;;;17.50;8.80;;;;;;;;;;4896404;29;20615;-67
2023/09/11 16:01:53;;;;;;;17.00;8.90;;;;;;;;;;4896377;29;20419;-68
2023/09/11 16:04:19;;;;;;;12.80;8.00;;;;;;;;;;4896652;29;20453;-67
2023/09/11 16:06:45;;;;;;;14.77;8.93;;;;;;;;;;4894368;29;20950;-66
2023/09/11 16:09:11;;;;;;;21.10;8.60;;;;;;;;;;4896716;29;20903;-68
2023/09/11 16:11:37;;;;;;;13.47;7.43;;;;;;;;;;4895818;29;20935;-68
2023/09/11 16:14:03;;;;;;;17.07;8.37;;;;;;;;;;4894790;29;20438;-70
2023/09/11 16:16:30;;;;;;;17.87;8.40;;;;;;;;;;4896527;29;20519;-68
2023/09/11 16:18:56;;;;;;;17.17;8.63;;;;;;;;;;4896300;29;20431;-67
2023/09/11 16:21:22;;;;;;;20.70;8.20;;;;;;;;;;4901824;29;20837;-67
2023/09/11 16:23:48;;;;;;;27.60;9.43;;;;;;;;;;4915353;29;20415;-67
2023/09/11 16:26:14;;;;;;;28.53;9.50;;;;;;;;;;4914395;29;20460;-67
2023/09/11 16:28:40;;;;;;;12.90;8.50;;;;;;;;;;4915461;29;20415;-66
2023/09/11 16:31:06;;;;;;;21.33;8.27;;;;;;;;;;4918526;29;20925;-66
2023/09/11 16:33:32;;;;;;;18.67;7.30;;;;;;;;;;4919467;29;20906;-67
2023/09/11 16:35:58;;;;;;;14.90;7.47;;;;;;;;;;4919121;29;20806;-66
2023/09/11 16:38:24;;;;;;;16.97;7.80;;;;;;;;;;4918714;29;20802;-67
2023/09/11 16:40:50;;;;;;;20.73;7.87;;;;;;;;;;4918989;29;20553;-67
2023/09/11 16:43:16;;;;;;;14.27;8.53;;;;;;;;;;4918918;29;20898;-67
2023/09/11 16:45:42;;;;;;;20.77;8.70;;;;;;;;;;4918769;29;20781;-68
2023/09/11 16:48:08;;;;;;;22.93;9.30;;;;;;;;;;4918969;29;20782;-68
2023/09/11 16:50:34;;;;;;;17.43;8.83;;;;;;;;;;4919042;29;20846;-71
2023/09/11 16:52:59;;;;;;;19.70;7.97;;;;;;;;;;4918462;29;20442;-71
2023/09/11 16:55:25;;;;;;;16.93;8.50;;;;;;;;;;4918893;29;20446;-72
2023/09/11 16:57:51;;;;;;;12.40;8.37;;;;;;;;;;4918779;29;20414;-73
2023/09/11 17:00:18;;;;;;;14.37;8.50;;;;;;;;;;4918894;29;20481;-68
2023/09/11 17:02:44;;;;;;;24.50;8.80;;;;;;;;;;4918763;29;20794;-70
2023/09/11 17:05:10;;;;;;;13.97;8.00;;;;;;;;;;4918556;29;20513;-68
2023/09/11 17:07:37;;;;;;;17.40;8.23;;;;;;;;;;4918372;29;20427;-68
2023/09/11 17:10:04;;;;;;;14.50;8.07;;;;;;;;;;4918525;29;20419;-68
2023/09/11 17:12:30;;;;;;;15.70;8.00;;;;;;;;;;4918177;29;20480;-68
2023/09/11 17:14:56;;;;;;;18.93;7.93;;;;;;;;;;4918301;29;20489;-68
2023/09/11 17:17:21;;;;;;;14.20;8.10;;;;;;;;;;4918540;29;21080;-68
2023/09/11 17:19:47;;;;;;;15.13;7.43;;;;;;;;;;4918242;29;20950;-68
2023/09/11 17:22:17;;;;;;;18.70;8.53;;;;;;;;;;4918609;29;20819;-68
2023/09/11 17:24:43;;;;;;;19.53;9.00;;;;;;;;;;4918069;29;20446;-69
2023/09/11 17:27:09;;;;;;;18.47;7.70;;;;;;;;;;4918088;29;20426;-67
2023/09/11 17:29:35;;;;;;;17.60;8.40;;;;;;;;;;4918449;29;20501;-68
2023/09/11 17:32:01;;;;;;;12.30;8.07;;;;;;;;;;4917826;29;20454;-68
2023/09/11 17:34:27;;;;;;;15.37;8.77;;;;;;;;;;4917671;29;20454;-68
2023/09/11 17:36:53;;;;;;;21.13;8.90;;;;;;;;;;4918267;29;20411;-69
2023/09/11 17:39:21;;;;;;;22.90;8.40;;;;;;;;;;4917922;29;20493;-69
2023/09/11 17:41:47;;;;;;;12.40;8.10;;;;;;;;;;4916443;29;20407;-69
2023/09/11 17:44:13;;;;;;;17.17;8.67;;;;;;;;;;4918145;29;20407;-69
2023/09/11 17:46:39;;;;;;;17.73;9.73;;;;;;;;;;4917898;29;20446;-69
2023/09/11 17:49:06;;;;;;;16.00;8.80;;;;;;;;;;4917885;29;20425;-68
2023/09/11 17:51:32;;;;;;;21.53;8.67;;;;;;;;;;4918787;29;20776;-68
2023/09/11 17:53:58;;;;;;;24.00;8.10;;;;;;;;;;4918206;29;20410;-69
2023/09/11 17:56:24;;;;;;;19.77;9.43;;;;;;;;;;4918298;29;20593;-68
2023/09/11 17:58:50;;;;;;;15.17;8.70;;;;;;;;;;4917241;29;20430;-68
2023/09/11 18:01:16;;;;;;;17.40;9.57;;;;;;;;;;4917610;29;20465;-68
2023/09/11 18:03:42;;;;;;;28.73;8.57;;;;;;;;;;4917354;29;20886;-68
2023/09/11 18:06:09;;;;;;;18.33;9.23;;;;;;;;;;4917369;29;20947;-68
2023/09/11 18:08:35;;;;;;;16.40;9.10;;;;;;;;;;4916881;29;20431;-70
2023/09/11 18:11:01;;;;;;;22.37;8.80;;;;;;;;;;4900294;29;20452;-70
2023/09/11 18:13:27;;;;;;;22.60;9.93;;;;;;;;;;4897337;29;20427;-70
2023/09/11 18:15:53;;;;;;;19.30;9.20;;;;;;;;;;4897805;29;20557;-70
2023/09/11 18:18:19;;;;;;;21.13;10.77;;;;;;;;;;4898096;29;20419;-70
2023/09/11 18:20:46;;;;;;;28.33;12.10;;;;;;;;;;4897350;29;20466;-71
2023/09/11 18:23:12;;;;;;;15.90;10.70;;;;;;;;;;4902636;29;20509;-71
2023/09/11 18:25:38;;;;;;;22.60;11.17;;;;;;;;;;4916504;29;20470;-70
2023/09/11 18:28:04;;;;;;;21.20;10.87;;;;;;;;;;4906073;29;20483;-70
2023/09/11 18:30:30;;;;;;;25.50;11.40;;;;;;;;;;4894920;29;20423;-71
2023/09/11 18:32:56;;;;;;;30.57;13.80;;;;;;;;;;4897088;29;20431;-72
2023/09/11 18:35:22;;;;;;;27.43;14.50;;;;;;;;;;4897964;29;20455;-72
2023/09/11 18:37:50;;;;;;;29.23;13.93;;;;;;;;;;4894692;29;20428;-71
2023/09/11 18:40:16;;;;;;;21.43;10.93;;;;;;;;;;4898723;29;20482;-72
2023/09/11 18:42:43;;;;;;;21.23;9.90;;;;;;;;;;4892438;29;20534;-71
2023/09/11 18:45:09;;;;;;;21.87;10.77;;;;;;;;;;4894977;29;20830;-71
2023/09/11 18:47:35;;;;;;;23.30;9.63;;;;;;;;;;4897094;29;20436;-71
2023/09/11 18:50:05;;;;;;;21.70;11.80;;;;;;;;;;4897302;29;20425;-71
2023/09/11 18:52:33;;;;;;;22.40;12.50;;;;;;;;;;4895118;29;20510;-71
2023/09/11 18:54:59;;;;;;;21.47;11.87;;;;;;;;;;4897436;29;21011;-71
2023/09/11 18:57:25;;;;;;;24.97;11.17;;;;;;;;;;4897915;29;20427;-71
2023/09/11 18:59:51;;;;;;;23.13;11.10;;;;;;;;;;4897658;29;20918;-71
2023/09/11 19:02:17;;;;;;;25.93;11.43;;;;;;;;;;4896953;29;20811;-72
2023/09/11 19:04:43;;;;;;;23.63;11.13;;;;;;;;;;4897669;29;20443;-72
2023/09/11 19:07:09;;;;;;;20.00;11.57;;;;;;;;;;4894384;29;20435;-71
2023/09/11 19:09:35;;;;;;;17.60;10.90;;;;;;;;;;4896868;29;20435;-71
2023/09/11 19:12:00;;;;;;;21.30;11.53;;;;;;;;;;4894619;29;20518;-70
2023/09/11 19:14:26;;;;;;;24.57;11.83;;;;;;;;;;4891010;29;20790;-71
2023/09/11 19:16:52;;;;;;;21.10;11.60;;;;;;;;;;4895989;29;20463;-72
2023/09/11 19:19:18;;;;;;;24.63;11.60;;;;;;;;;;4894367;29;20853;-70
2023/09/11 19:21:45;;;;;;;29.13;12.03;;;;;;;;;;4894772;29;20432;-71
2023/09/11 19:24:11;;;;;;;26.43;11.10;;;;;;;;;;4896135;29;20588;-70
2023/09/11 19:26:37;;;;;;;19.07;10.73;;;;;;;;;;4896822;29;20940;-71
2023/09/11 19:29:03;;;;;;;21.03;11.10;;;;;;;;;;4896691;29;20751;-70
2023/09/11 19:31:29;;;;;;;21.17;11.13;;;;;;;;;;4896199;29;20797;-71
2023/09/11 19:33:55;;;;;;;21.70;11.37;;;;;;;;;;4896352;29;20428;-70
2023/09/11 19:36:21;;;;;;;22.53;11.50;;;;;;;;;;4895104;29;20455;-70
2023/09/11 19:38:48;;;;;;;20.67;10.83;;;;;;;;;;4896649;29;20903;-71
2023/09/11 19:41:14;;;;;;;19.43;12.13;;;;;;;;;;4895756;29;20495;-70
2023/09/11 19:43:40;;;;;;;20.73;10.77;;;;;;;;;;4893223;29;21461;-76
2023/09/11 19:46:06;;;;;;;20.03;11.10;;;;;;;;;;4897050;29;20442;-75
2023/09/11 19:48:34;;;;;;;19.60;10.80;;;;;;;;;;4892282;29;20439;-76
2023/09/11 19:51:00;;;;;;;29.67;12.15;;;;;;;;;;4895892;29;20416;-74
2023/09/11 19:53:26;;;;;;;17.17;10.60;;;;;;;;;;4894371;29;20194;-75
2023/09/11 19:55:52;;;;;;;26.30;12.40;;;;;;;;;;4897328;29;20449;-75
2023/09/11 19:58:18;;;;;;;21.60;12.20;;;;;;;;;;4897250;29;20518;-74
2023/09/11 20:00:44;;;;;;;22.33;11.90;;;;;;;;;;4897081;29;20467;-75
2023/09/11 20:03:09;;;;;;;22.20;12.13;;;;;;;;;;4896530;29;20419;-74
2023/09/11 20:05:35;;;;;;;20.93;12.33;;;;;;;;;;4895960;29;20462;-75
2023/09/11 20:08:01;;;;;;;20.93;12.80;;;;;;;;;;4904138;29;20812;-75
2023/09/11 20:10:27;;;;;;;25.17;12.23;;;;;;;;;;4915869;29;20434;-75
2023/09/11 20:12:53;;;;;;;21.50;11.97;;;;;;;;;;4915829;29;21011;-75
2023/09/11 20:15:19;;;;;;;29.80;13.83;;;;;;;;;;4902722;29;20550;-75
2023/09/11 20:17:45;;;;;;;20.50;12.43;;;;;;;;;;4897092;29;20411;-75
2023/09/11 20:20:12;;;;;;;23.30;12.40;;;;;;;;;;4915570;29;20478;-74